createdAt,value
2022-09-25T00:01:01.185Z,2.72
2022-09-25T00:03:30.245Z,2.75
2022-09-25T00:06:07.914Z,2.55
2022-09-25T00:08:36.855Z,2.17
2022-09-25T00:11:07.956Z,1.90
2022-09-25T00:13:36.673Z,2.08
2022-09-25T00:16:05.211Z,1.80
2022-09-25T00:18:51.434Z,2.42
2022-09-25T00:21:21.725Z,2.92
2022-09-25T00:23:50.638Z,1.92
2022-09-25T00:26:19.551Z,2.22
2022-09-25T00:28:47.834Z,2.05
2022-09-25T00:31:21.313Z,1.75
2022-09-25T00:33:49.681Z,2.17
2022-09-25T00:36:18.070Z,1.40
2022-09-25T00:38:49.062Z,2.13
2022-09-25T00:41:18.149Z,1.83
2022-09-25T00:43:48.227Z,1.60
2022-09-25T00:46:18.530Z,2.03
2022-09-25T00:48:50.234Z,1.60
2022-09-25T00:51:21.017Z,2.47
2022-09-25T00:53:51.058Z,2.63
2022-09-25T00:56:19.639Z,1.38
2022-09-25T00:58:49.015Z,1.92
2022-09-25T01:01:17.818Z,2.17
2022-09-25T01:03:46.623Z,1.98
2022-09-25T01:06:16.055Z,2.40
2022-09-25T01:08:45.091Z,2.20
2022-09-25T01:11:14.780Z,1.95
2022-09-25T01:13:43.398Z,1.52
2022-09-25T01:16:15.257Z,2.13
2022-09-25T01:18:47.252Z,2.38
2022-09-25T01:21:19.936Z,2.80
2022-09-25T01:23:57.973Z,1.83
2022-09-25T01:26:38.584Z,1.70
2022-09-25T01:29:12.398Z,2.55
2022-09-25T01:31:44.372Z,2.10
2022-09-25T01:34:16.740Z,2.90
2022-09-25T01:36:49.731Z,1.92
2022-09-25T01:39:21.925Z,2.50
2022-09-25T01:41:53.430Z,2.55
2022-09-25T01:44:28.802Z,2.17
2022-09-25T01:46:58.684Z,2.75
2022-09-25T01:49:29.134Z,1.88
2022-09-25T01:51:58.521Z,2.13
2022-09-25T01:54:30.110Z,2.28
2022-09-25T01:57:00.545Z,2.50
2022-09-25T01:59:32.177Z,2.30
2022-09-25T02:02:01.506Z,2.20
2022-09-25T02:04:31.243Z,2.03
2022-09-25T02:07:01.605Z,1.73
2022-09-25T02:09:35.229Z,1.63
2022-09-25T02:12:07.155Z,1.50
2022-09-25T02:14:42.379Z,1.90
2022-09-25T02:17:12.710Z,1.63
2022-09-25T02:19:59.235Z,2.25
2022-09-25T02:22:30.603Z,1.92
2022-09-25T02:24:59.653Z,1.83
2022-09-25T02:27:29.571Z,1.98
2022-09-25T02:29:59.321Z,1.83
2022-09-25T02:32:30.544Z,2.10
2022-09-25T02:34:59.747Z,1.58
2022-09-25T02:37:28.191Z,1.13
2022-09-25T02:39:58.635Z,1.42
2022-09-25T02:42:30.766Z,1.50
2022-09-25T02:45:09.946Z,1.70
2022-09-25T02:47:44.693Z,1.55
2022-09-25T02:50:17.865Z,1.83
2022-09-25T02:52:48.503Z,1.67
2022-09-25T02:55:20.427Z,1.80
2022-09-25T02:57:53.155Z,1.73
2022-09-25T03:00:23.714Z,1.70
2022-09-25T03:02:53.611Z,1.52
2022-09-25T03:05:22.389Z,2.17
2022-09-25T03:08:08.704Z,1.98
2022-09-25T03:10:38.591Z,2.00
2022-09-25T03:13:16.964Z,1.48
2022-09-25T03:15:48.533Z,2.03
2022-09-25T03:18:16.883Z,2.08
2022-09-25T03:20:45.201Z,2.30
2022-09-25T03:23:13.999Z,1.58
2022-09-25T03:25:47.481Z,1.77
2022-09-25T03:28:18.049Z,1.48
2022-09-25T03:30:56.963Z,1.92
2022-09-25T03:33:25.489Z,1.90
2022-09-25T03:36:01.610Z,1.63
2022-09-25T03:38:29.838Z,1.40
2022-09-25T03:40:58.272Z,1.50
2022-09-25T03:43:27.015Z,1.92
2022-09-25T03:45:56.873Z,1.80
2022-09-25T03:48:25.244Z,1.88
2022-09-25T03:50:53.625Z,1.58
2022-09-25T03:53:21.921Z,1.60
2022-09-25T03:55:50.200Z,1.48
2022-09-25T03:58:18.587Z,1.67
2022-09-25T04:00:47.345Z,1.35
2022-09-25T04:03:17.987Z,1.50
2022-09-25T04:05:46.374Z,1.73
2022-09-25T04:08:14.639Z,1.10
2022-09-25T04:10:43.027Z,1.50
2022-09-25T04:13:12.868Z,1.63
2022-09-25T04:15:41.177Z,1.40
2022-09-25T04:18:09.532Z,1.63
2022-09-25T04:20:39.349Z,1.50
2022-09-25T04:23:07.623Z,1.33
2022-09-25T04:25:36.262Z,1.58
2022-09-25T04:28:05.223Z,1.67
2022-09-25T04:30:33.516Z,1.70
2022-09-25T04:33:19.299Z,1.75
2022-09-25T04:35:49.040Z,1.63
2022-09-25T04:38:17.849Z,1.65
2022-09-25T04:40:46.920Z,1.65
2022-09-25T04:43:15.428Z,1.58
2022-09-25T04:45:43.821Z,1.45
2022-09-25T04:48:12.121Z,1.25
2022-09-25T04:50:40.407Z,1.30
2022-09-25T04:53:10.883Z,1.50
2022-09-25T04:55:39.599Z,1.48
2022-09-25T04:58:07.843Z,1.63
2022-09-25T05:00:36.519Z,1.77
2022-09-25T05:03:05.004Z,1.27
2022-09-25T05:05:33.779Z,1.33
2022-09-25T05:08:02.581Z,1.90
2022-09-25T05:10:32.905Z,1.73
2022-09-25T05:13:02.262Z,1.25
2022-09-25T05:15:31.802Z,1.50
2022-09-25T05:18:02.846Z,1.50
2022-09-25T05:20:31.150Z,1.95
2022-09-25T05:22:59.893Z,1.58
2022-09-25T05:25:28.756Z,1.40
2022-09-25T05:27:59.448Z,1.50
2022-09-25T05:30:27.929Z,1.20
2022-09-25T05:32:58.872Z,1.65
2022-09-25T05:35:27.965Z,1.33
2022-09-25T05:37:56.334Z,2.00
2022-09-25T05:40:25.284Z,0.93
2022-09-25T05:42:55.196Z,1.38
2022-09-25T05:45:25.091Z,1.40
2022-09-25T05:48:02.272Z,1.58
2022-09-25T05:50:32.356Z,1.00
2022-09-25T05:53:01.330Z,1.20
2022-09-25T05:55:29.949Z,1.52
2022-09-25T05:58:02.580Z,1.33
2022-09-25T06:00:33.298Z,1.60
2022-09-25T06:03:01.921Z,1.42
2022-09-25T06:05:30.386Z,1.42
2022-09-25T06:07:58.804Z,0.98
2022-09-25T06:10:27.208Z,0.88
2022-09-25T06:12:58.872Z,1.40
2022-09-25T06:15:27.908Z,0.85
2022-09-25T06:17:58.005Z,0.93
2022-09-25T06:20:26.895Z,1.02
2022-09-25T06:22:55.375Z,0.90
2022-09-25T06:25:25.914Z,1.05
2022-09-25T06:27:55.046Z,1.10
2022-09-25T06:30:23.480Z,1.23
2022-09-25T06:32:51.873Z,1.20
2022-09-25T06:35:21.697Z,1.38
2022-09-25T06:37:49.992Z,1.20
2022-09-25T06:40:18.501Z,0.98
2022-09-25T06:42:46.870Z,0.90
2022-09-25T06:45:15.259Z,1.08
2022-09-25T06:47:43.537Z,1.33
2022-09-25T06:50:12.289Z,0.82
2022-09-25T06:52:44.650Z,0.82
2022-09-25T06:55:13.189Z,0.85
2022-09-25T06:57:41.480Z,1.15
2022-09-25T07:00:10.427Z,1.00
2022-09-25T07:02:56.526Z,1.17
2022-09-25T07:05:24.850Z,0.93
2022-09-25T07:07:55.837Z,0.57
2022-09-25T07:10:24.205Z,1.60
2022-09-25T07:12:52.475Z,0.75
2022-09-25T07:15:20.951Z,1.05
2022-09-25T07:17:49.256Z,0.40
2022-09-25T07:20:17.733Z,1.05
2022-09-25T07:22:46.010Z,1.08
2022-09-25T07:25:15.980Z,0.70
2022-09-25T07:27:44.223Z,1.25
2022-09-25T07:30:12.849Z,0.52
2022-09-25T07:32:41.193Z,1.25
2022-09-25T07:35:10.275Z,0.98
2022-09-25T07:37:38.550Z,1.33
2022-09-25T07:40:07.351Z,1.50
2022-09-25T07:42:37.083Z,0.85
2022-09-25T07:45:05.602Z,1.27
2022-09-25T07:47:33.910Z,1.20
2022-09-25T07:50:02.216Z,1.60
2022-09-25T07:52:30.604Z,1.17
2022-09-25T07:54:59.651Z,1.25
2022-09-25T07:57:28.158Z,1.67
2022-09-25T07:59:57.805Z,1.95
2022-09-25T08:02:26.350Z,1.23
2022-09-25T08:04:54.703Z,1.23
2022-09-25T08:07:23.184Z,1.75
2022-09-25T08:09:51.497Z,1.80
2022-09-25T08:12:19.851Z,1.75
2022-09-25T08:14:48.296Z,1.45
2022-09-25T08:17:18.836Z,1.70
2022-09-25T08:19:47.112Z,1.73
2022-09-25T08:22:15.810Z,2.20
2022-09-25T08:24:44.131Z,2.83
2022-09-25T08:27:12.616Z,1.67
2022-09-25T08:29:40.916Z,1.83
2022-09-25T08:32:09.715Z,1.65
2022-09-25T08:34:41.496Z,1.33
2022-09-25T08:37:10.509Z,2.17
2022-09-25T08:39:38.786Z,2.45
2022-09-25T08:42:07.358Z,1.98
2022-09-25T08:44:38.989Z,3.10
2022-09-25T08:47:40.287Z,1.88
2022-09-25T08:50:13.911Z,2.35
2022-09-25T08:52:43.789Z,2.17
2022-09-25T08:55:15.627Z,2.08
2022-09-25T08:57:45.279Z,2.20
2022-09-25T09:00:21.008Z,1.75
2022-09-25T09:02:54.065Z,1.52
2022-09-25T09:05:26.573Z,2.05
2022-09-25T09:07:56.218Z,2.35
2022-09-25T09:10:30.449Z,1.88
2022-09-25T09:13:01.561Z,1.83
2022-09-25T09:15:32.068Z,2.80
2022-09-25T09:18:03.125Z,1.90
2022-09-25T09:20:35.849Z,2.03
2022-09-25T09:23:04.329Z,1.48
2022-09-25T09:25:36.020Z,2.60
2022-09-25T09:28:21.498Z,2.40
2022-09-25T09:30:55.291Z,1.77
2022-09-25T09:33:34.261Z,1.40
2022-09-25T09:36:11.136Z,1.92
2022-09-25T09:38:45.405Z,2.22
2022-09-25T09:41:21.790Z,1.98
2022-09-25T09:44:04.753Z,1.85
2022-09-25T09:46:40.364Z,2.58
2022-09-25T09:49:13.227Z,1.98
2022-09-25T09:51:45.185Z,1.92
2022-09-25T09:54:15.872Z,1.77
2022-09-25T09:56:46.092Z,2.40
2022-09-25T09:59:17.712Z,1.92
2022-09-25T10:01:47.514Z,2.35
2022-09-25T10:04:17.743Z,2.35
2022-09-25T10:06:50.207Z,1.80
2022-09-25T10:09:19.000Z,2.10
2022-09-25T10:11:48.822Z,2.00
2022-09-25T10:14:21.257Z,1.65
2022-09-25T10:16:51.146Z,2.15
2022-09-25T10:19:20.553Z,2.05
2022-09-25T10:21:53.409Z,1.73
2022-09-25T10:24:41.124Z,2.33
2022-09-25T10:27:22.035Z,1.70
2022-09-25T10:30:02.457Z,1.75
2022-09-25T10:32:31.356Z,1.70
2022-09-25T10:34:59.842Z,2.10
2022-09-25T10:37:34.820Z,1.98
2022-09-25T10:42:37.995Z,2.10
2022-09-25T10:47:52.037Z,1.75
2022-09-25T10:50:22.074Z,2.55
2022-09-25T10:52:53.985Z,2.20
2022-09-25T10:55:27.203Z,1.98
2022-09-25T10:57:59.276Z,1.85
2022-09-25T11:00:28.284Z,2.63
2022-09-25T11:02:58.361Z,1.60
2022-09-25T11:05:28.435Z,1.92
2022-09-25T11:07:58.897Z,2.08
2022-09-25T11:10:28.531Z,1.67
2022-09-25T11:12:57.850Z,1.45
2022-09-25T11:15:27.750Z,1.75
2022-09-25T11:17:57.294Z,1.30
2022-09-25T11:20:30.632Z,1.58
2022-09-25T11:23:15.153Z,1.67
2022-09-25T11:25:47.046Z,1.53
2022-09-25T11:28:17.982Z,1.83
2022-09-25T11:30:49.077Z,1.88
2022-09-25T11:33:23.387Z,1.85
2022-09-25T11:35:54.479Z,2.05
2022-09-25T11:38:43.911Z,1.30
2022-09-25T11:41:20.508Z,1.42
2022-09-25T11:43:58.042Z,0.90
2022-09-25T11:46:29.828Z,1.10
2022-09-25T11:49:02.544Z,1.48
2022-09-25T11:51:36.810Z,0.98
2022-09-25T11:54:31.817Z,1.50
2022-09-25T11:57:04.794Z,1.48
2022-09-25T11:59:38.411Z,1.40
2022-09-25T12:02:14.248Z,1.20
2022-09-25T12:04:49.172Z,1.60
2022-09-25T12:07:27.325Z,1.38
2022-09-25T12:10:06.468Z,1.30
2022-09-25T12:12:37.606Z,1.20
2022-09-25T12:15:14.336Z,1.33
2022-09-25T12:17:46.044Z,1.27
2022-09-25T12:20:19.802Z,1.70
2022-09-25T12:22:52.462Z,1.30
2022-09-25T12:25:29.798Z,1.45
2022-09-25T12:28:01.997Z,1.00
2022-09-25T12:30:34.600Z,1.58
2022-09-25T12:33:08.791Z,1.35
2022-09-25T12:35:43.956Z,1.37
2022-09-25T12:38:15.878Z,1.80
2022-09-25T12:40:47.121Z,1.50
2022-09-25T12:43:17.492Z,1.63
2022-09-25T12:45:50.142Z,1.30
2022-09-25T12:48:22.045Z,1.20
2022-09-25T12:50:55.971Z,1.60
2022-09-25T12:53:27.596Z,1.83
2022-09-25T12:55:59.002Z,1.65
2022-09-25T12:58:32.306Z,1.10
2022-09-25T13:01:03.334Z,1.73
2022-09-25T13:03:37.579Z,1.30
2022-09-25T13:06:09.227Z,1.88
2022-09-25T13:08:41.759Z,1.73
2022-09-25T13:11:14.639Z,1.85
2022-09-25T13:13:45.632Z,1.65
2022-09-25T13:16:16.149Z,2.00
2022-09-25T13:18:49.201Z,2.20
2022-09-25T13:21:25.345Z,1.42
2022-09-25T13:23:54.561Z,1.92
2022-09-25T13:26:26.885Z,1.92
2022-09-25T13:28:58.700Z,2.22
2022-09-25T13:31:28.105Z,1.63
2022-09-25T13:33:58.858Z,2.13
2022-09-25T13:36:41.289Z,1.55
2022-09-25T13:39:37.463Z,1.70
2022-09-25T13:42:08.772Z,1.50
2022-09-25T13:44:54.862Z,1.70
2022-09-25T13:47:50.659Z,2.25
2022-09-25T13:53:16.650Z,1.73
2022-09-25T13:55:45.846Z,2.65
2022-09-25T13:58:21.890Z,1.83
2022-09-25T14:00:55.566Z,2.17
2022-09-25T14:03:36.701Z,1.42
2022-09-25T14:06:06.074Z,1.65
2022-09-25T14:08:35.835Z,1.40
2022-09-25T14:11:06.361Z,2.25
2022-09-25T14:13:36.642Z,1.60
2022-09-25T14:16:09.916Z,1.20
2022-09-25T14:18:41.015Z,1.10
2022-09-25T14:21:09.918Z,1.58
2022-09-25T14:23:49.428Z,1.38
2022-09-25T14:26:21.642Z,1.48
2022-09-25T14:28:52.284Z,1.05
2022-09-25T14:31:27.802Z,1.10
2022-09-25T14:34:08.646Z,1.90
2022-09-25T14:36:41.224Z,1.48
2022-09-25T14:39:20.803Z,1.17
2022-09-25T14:41:56.021Z,1.05
2022-09-25T14:44:32.774Z,1.73
2022-09-25T14:47:01.269Z,1.90
2022-09-25T14:49:30.569Z,2.22
2022-09-25T14:52:00.897Z,1.40
2022-09-25T14:54:31.625Z,1.20
2022-09-25T14:57:00.837Z,1.92
2022-09-25T14:59:32.795Z,1.70
2022-09-25T15:02:03.239Z,1.55
2022-09-25T15:04:33.372Z,1.65
2022-09-25T15:07:03.384Z,1.50
2022-09-25T15:09:33.045Z,1.42
2022-09-25T15:12:01.394Z,1.08
2022-09-25T15:14:31.076Z,1.17
2022-09-25T15:17:17.021Z,1.40
2022-09-25T15:19:47.372Z,1.23
2022-09-25T15:22:19.594Z,1.48
2022-09-25T15:24:50.894Z,1.17
2022-09-25T15:27:19.429Z,1.73
2022-09-25T15:29:49.663Z,1.48
2022-09-25T15:32:19.088Z,1.30
2022-09-25T15:34:47.729Z,1.10
2022-09-25T15:37:26.210Z,1.60
2022-09-25T15:39:55.193Z,1.95
2022-09-25T15:42:24.089Z,1.80
2022-09-25T15:44:54.528Z,1.58
2022-09-25T15:47:41.311Z,1.00
2022-09-25T15:50:16.868Z,1.10
2022-09-25T15:52:45.232Z,1.20
2022-09-25T15:55:15.187Z,1.40
2022-09-25T15:57:44.040Z,1.30
2022-09-25T16:00:37.303Z,1.60
2022-09-25T16:03:25.683Z,1.38
2022-09-25T16:05:55.060Z,1.42
2022-09-25T16:08:29.371Z,1.52
2022-09-25T16:11:06.449Z,1.52
2022-09-25T16:13:36.577Z,1.40
2022-09-25T16:16:07.054Z,1.50
2022-09-25T16:18:40.664Z,2.00
2022-09-25T16:21:11.820Z,1.77
2022-09-25T16:23:42.358Z,2.25
2022-09-25T16:26:16.869Z,1.55
2022-09-25T16:28:50.354Z,1.15
2022-09-25T16:31:23.072Z,1.52
2022-09-25T16:33:53.004Z,1.80
2022-09-25T16:36:21.739Z,1.70
2022-09-25T16:39:07.055Z,1.15
2022-09-25T16:41:36.359Z,1.55
2022-09-25T16:44:07.919Z,1.55
2022-09-25T16:46:37.661Z,1.15
2022-09-25T16:49:06.064Z,1.45
2022-09-25T16:51:34.797Z,1.50
2022-09-25T16:54:03.314Z,1.92
2022-09-25T16:56:32.440Z,1.42
2022-09-25T16:59:00.865Z,1.55
2022-09-25T17:01:29.903Z,1.38
2022-09-25T17:04:00.513Z,1.20
2022-09-25T17:06:30.567Z,1.60
2022-09-25T17:09:00.558Z,1.75
2022-09-25T17:11:29.136Z,1.83
2022-09-25T17:13:57.894Z,1.40
2022-09-25T17:16:26.804Z,1.92
2022-09-25T17:19:00.638Z,1.70
2022-09-25T17:21:34.169Z,1.95
2022-09-25T17:24:03.774Z,1.58
2022-09-25T17:26:32.107Z,1.75
2022-09-25T17:29:00.407Z,1.60
2022-09-25T17:31:29.041Z,1.25
2022-09-25T17:33:57.646Z,1.58
2022-09-25T17:36:26.854Z,1.42
2022-09-25T17:38:56.717Z,1.40
2022-09-25T17:41:31.036Z,1.70
2022-09-25T17:43:59.811Z,1.42
2022-09-25T17:46:28.387Z,1.88
2022-09-25T17:48:57.401Z,1.88
2022-09-25T17:51:27.044Z,1.48
2022-09-25T17:53:57.729Z,1.65
2022-09-25T17:56:28.251Z,1.58
2022-09-25T17:58:57.872Z,1.35
2022-09-25T18:01:27.399Z,1.42
2022-09-25T18:03:56.798Z,1.60
2022-09-25T18:06:25.756Z,2.75
2022-09-25T18:08:55.822Z,1.40
2022-09-25T18:11:27.247Z,2.58
2022-09-25T18:13:57.019Z,1.63
2022-09-25T18:16:29.221Z,2.10
2022-09-25T18:19:15.139Z,1.42
2022-09-25T18:22:01.189Z,2.03
2022-09-25T18:24:29.737Z,1.88
2022-09-25T18:26:59.961Z,2.00
2022-09-25T18:29:28.342Z,1.90
2022-09-25T18:31:56.723Z,2.20
2022-09-25T18:34:26.619Z,1.77
2022-09-25T18:36:55.093Z,1.98
2022-09-25T18:39:23.930Z,2.20
2022-09-25T18:41:52.401Z,1.70
2022-09-25T18:44:23.513Z,2.00
2022-09-25T18:46:52.789Z,1.25
2022-09-25T18:49:21.311Z,1.60
2022-09-25T18:51:49.668Z,1.92
2022-09-25T18:54:18.286Z,1.23
2022-09-25T18:56:47.079Z,1.30
2022-09-25T18:59:15.629Z,1.42
2022-09-25T19:01:45.528Z,2.13
2022-09-25T19:04:16.882Z,1.95
2022-09-25T19:06:45.197Z,1.90
2022-09-25T19:09:16.658Z,2.03
2022-09-25T19:11:46.173Z,1.75
2022-09-25T19:14:16.515Z,1.45
2022-09-25T19:16:47.149Z,2.00
2022-09-25T19:19:15.834Z,1.73
2022-09-25T19:21:44.921Z,1.35
2022-09-25T19:24:13.669Z,1.38
2022-09-25T19:26:42.801Z,2.28
2022-09-25T19:29:11.322Z,1.73
2022-09-25T19:31:39.850Z,1.30
2022-09-25T19:34:09.892Z,1.83
2022-09-25T19:36:38.513Z,1.55
2022-09-25T19:39:07.324Z,2.05
2022-09-25T19:41:36.466Z,1.70
2022-09-25T19:44:12.194Z,1.92
2022-09-25T19:46:42.069Z,2.03
2022-09-25T19:49:12.171Z,1.83
2022-09-25T19:51:40.958Z,1.70
2022-09-25T19:54:09.976Z,2.10
2022-09-25T19:56:40.671Z,2.67
2022-09-25T19:59:09.359Z,1.85
2022-09-25T20:01:38.350Z,1.63
2022-09-25T20:04:08.802Z,1.70
2022-09-25T20:06:39.449Z,2.67
2022-09-25T20:09:10.597Z,1.92
2022-09-25T20:11:38.981Z,1.83
2022-09-25T20:14:07.854Z,1.58
2022-09-25T20:16:37.278Z,1.42
2022-09-25T20:19:07.713Z,1.63
2022-09-25T20:21:37.838Z,2.03
2022-09-25T20:24:08.509Z,1.95
2022-09-25T20:26:37.104Z,2.60
2022-09-25T20:29:08.789Z,1.48
2022-09-25T20:31:38.259Z,2.15
2022-09-25T20:34:07.007Z,2.00
2022-09-25T20:36:36.209Z,0.93
2022-09-25T20:39:04.625Z,1.48
2022-09-25T20:41:34.453Z,1.42
2022-09-25T20:44:03.029Z,1.15
2022-09-25T20:46:32.654Z,0.93
2022-09-25T20:49:02.023Z,1.88
2022-09-25T20:51:31.517Z,1.25
2022-09-25T20:54:00.743Z,1.48
2022-09-25T20:56:29.841Z,0.98
2022-09-25T20:59:00.071Z,1.70
2022-09-25T21:01:29.779Z,1.02
2022-09-25T21:04:00.317Z,0.98
2022-09-25T21:06:29.573Z,1.23
2022-09-25T21:09:00.330Z,1.85
2022-09-25T21:11:30.271Z,1.63
2022-09-25T21:14:02.855Z,0.98
2022-09-25T21:16:32.365Z,1.17
2022-09-25T21:19:02.158Z,0.80
2022-09-25T21:21:30.639Z,0.98
2022-09-25T21:23:59.513Z,0.82
2022-09-25T21:26:28.785Z,1.30
2022-09-25T21:28:58.186Z,1.23
2022-09-25T21:31:28.798Z,1.13
2022-09-25T21:33:58.225Z,0.90
2022-09-25T21:36:27.274Z,0.80
2022-09-25T21:38:55.775Z,1.00
2022-09-25T21:41:24.741Z,0.77
2022-09-25T21:43:54.818Z,0.88
2022-09-25T21:46:23.457Z,0.52
2022-09-25T21:48:54.264Z,0.88
2022-09-25T21:51:23.500Z,0.63
2022-09-25T21:53:51.906Z,0.73
2022-09-25T21:56:22.616Z,0.82
2022-09-25T21:58:51.418Z,0.90
2022-09-25T22:01:21.138Z,0.80
2022-09-25T22:03:50.614Z,0.73
2022-09-25T22:06:21.483Z,0.88
2022-09-25T22:08:50.785Z,0.90
2022-09-25T22:11:19.467Z,0.80
2022-09-25T22:13:48.795Z,0.52
2022-09-25T22:16:19.577Z,1.30
2022-09-25T22:18:48.858Z,0.95
2022-09-25T22:21:18.214Z,0.65
2022-09-25T22:23:48.314Z,0.50
2022-09-25T22:26:17.282Z,0.70
2022-09-25T22:28:45.593Z,0.57
2022-09-25T22:31:14.872Z,0.40
2022-09-25T22:33:43.575Z,0.60
2022-09-25T22:36:12.473Z,0.52
2022-09-25T22:38:41.152Z,1.02
2022-09-25T22:41:11.753Z,0.60
2022-09-25T22:43:40.421Z,1.00
2022-09-25T22:46:09.245Z,0.52
2022-09-25T22:48:38.172Z,0.70
2022-09-25T22:51:07.251Z,0.60
2022-09-25T22:53:36.429Z,0.82
2022-09-25T22:56:13.524Z,0.60
2022-09-25T22:58:41.940Z,1.42
2022-09-25T23:01:12.840Z,0.57
2022-09-25T23:03:41.226Z,0.50
2022-09-25T23:06:09.908Z,0.73
2022-09-25T23:08:38.416Z,0.43
2022-09-25T23:11:08.434Z,0.73
2022-09-25T23:13:38.273Z,0.95
2022-09-25T23:16:07.503Z,0.73
2022-09-25T23:18:36.242Z,1.08
2022-09-25T23:21:04.713Z,1.70
2022-09-25T23:23:33.183Z,0.73
2022-09-25T23:26:06.138Z,0.82
2022-09-25T23:28:35.116Z,0.47
2022-09-25T23:31:12.221Z,0.60
2022-09-25T23:33:41.076Z,0.40
2022-09-25T23:36:10.263Z,0.57
2022-09-25T23:38:39.059Z,0.57
2022-09-25T23:41:14.574Z,0.40
2022-09-25T23:43:42.869Z,0.47
2022-09-25T23:46:12.706Z,0.45
2022-09-25T23:48:41.274Z,0.35
2022-09-25T23:51:09.926Z,0.45
2022-09-25T23:53:38.464Z,0.28
2022-09-25T23:56:08.043Z,0.35
2022-09-25T23:58:36.294Z,0.35
